Time;durP1;ratioP1;P1;durP2;ratioP2;P2;SDS_P1;SDS_P2;PMS_P1;PMS_P2;Temp;Humidity;BMP_temperature;BMP_pressure;BME280_temperature;BME280_humidity;BME280_pressure;Samples;Min_cycle;Max_cycle;Signal;HPM_P1;HPM_P2
2023/10/01 00:00:59;;;;;;;13.27;8.52;;;;;;;15.41;100.00;102299.63;5058877;28;20175;-63
2023/10/01 00:03:47;;;;;;;15.10;8.55;;;;;;;15.36;100.00;102294.91;5075080;28;20041;-62
2023/10/01 00:06:36;;;;;;;15.07;8.85;;;;;;;15.34;100.00;102297.94;5048769;28;20049;-61
2023/10/01 00:09:24;;;;;;;12.73;8.38;;;;;;;15.37;100.00;102293.84;5071051;28;20040;-62
2023/10/01 00:12:12;;;;;;;12.82;8.15;;;;;;;15.35;100.00;102287.78;5057031;28;20051;-63
2023/10/01 00:15:00;;;;;;;12.32;7.88;;;;;;;15.36;100.00;102292.16;5073148;28;20044;-61
2023/10/01 00:17:48;;;;;;;14.07;8.30;;;;;;;15.36;100.00;102289.41;5073798;28;20056;-62
2023/10/01 00:20:37;;;;;;;13.73;7.70;;;;;;;15.37;100.00;102295.72;5057649;28;20056;-62
2023/10/01 00:23:25;;;;;;;14.88;7.80;;;;;;;15.38;100.00;102298.22;5038159;28;20116;-62
2023/10/01 00:26:13;;;;;;;12.13;8.40;;;;;;;15.39;100.00;102299.03;5066673;28;20052;-62
2023/10/01 00:29:04;;;;;;;15.30;8.02;;;;;;;15.39;100.00;102294.38;5072882;28;20044;-62
2023/10/01 00:31:52;;;;;;;15.43;8.70;;;;;;;15.40;100.00;102295.22;5059129;28;20052;-62
2023/10/01 00:34:40;;;;;;;12.85;8.00;;;;;;;15.40;100.00;102290.56;5058936;28;20047;-63
2023/10/01 00:37:28;;;;;;;13.40;8.48;;;;;;;15.40;100.00;102289.72;5038989;28;20041;-63
2023/10/01 00:40:17;;;;;;;15.23;8.55;;;;;;;15.39;100.00;102282.56;5037860;28;20397;-63
2023/10/01 00:43:06;;;;;;;11.85;8.35;;;;;;;15.36;100.00;102280.34;5037406;28;20087;-62
2023/10/01 00:45:54;;;;;;;14.82;8.55;;;;;;;15.34;100.00;102284.22;5064728;28;20102;-63
2023/10/01 00:48:42;;;;;;;16.13;8.05;;;;;;;15.32;100.00;102283.63;5073394;28;20495;-63
2023/10/01 00:51:32;;;;;;;13.75;8.30;;;;;;;15.30;100.00;102285.81;5043276;28;20102;-62
2023/10/01 00:54:21;;;;;;;14.95;8.25;;;;;;;15.27;100.00;102280.88;5058178;28;20083;-61
2023/10/01 00:57:09;;;;;;;13.55;8.30;;;;;;;15.27;100.00;102277.25;5045208;28;20629;-63
2023/10/01 00:59:58;;;;;;;12.07;7.97;;;;;;;15.27;100.00;102277.25;5060069;28;20048;-63
2023/10/01 01:06:13;;;;;;;12.77;7.63;;;;;;;15.22;100.00;102275.31;5064286;28;20059;-63
2023/10/01 01:09:01;;;;;;;12.73;7.60;;;;;;;15.22;100.00;102272.56;5060516;28;20090;-62
2023/10/01 01:11:50;;;;;;;15.63;8.15;;;;;;;15.23;100.00;102263.25;5041006;28;20493;-62
2023/10/01 01:14:44;;;;;;;12.95;7.10;;;;;;;15.16;100.00;102259.91;5024766;28;20045;-62
2023/10/01 01:17:33;;;;;;;13.00;6.93;;;;;;;15.15;100.00;102266.47;5021899;28;20056;-63
2023/10/01 01:20:22;;;;;;;13.55;6.95;;;;;;;15.18;100.00;102265.16;5071318;28;20135;-63
2023/10/01 01:23:19;;;;;;;11.65;6.10;;;;;;;15.21;100.00;102259.94;5044674;28;20488;-63
2023/10/01 01:26:07;;;;;;;12.05;7.05;;;;;;;15.23;100.00;102257.75;5057467;28;20415;-62
2023/10/01 01:28:58;;;;;;;11.88;7.13;;;;;;;15.25;100.00;102255.59;5069391;28;20093;-62
2023/10/01 01:31:46;;;;;;;11.80;6.57;;;;;;;15.27;100.00;102261.63;5070643;28;20041;-62
2023/10/01 01:34:35;;;;;;;11.63;6.80;;;;;;;15.28;100.00;102244.06;5023882;28;20056;-63
2023/10/01 01:40:35;;;;;;;12.75;6.95;;;;;;;15.27;100.00;102247.06;5062724;28;20658;-63
2023/10/01 01:43:30;;;;;;;13.00;6.68;;;;;;;15.26;100.00;102250.91;5075062;28;20513;-63
2023/10/01 01:46:18;;;;;;;13.43;6.93;;;;;;;15.24;100.00;102239.34;5061263;28;20045;-63
2023/10/01 01:49:09;;;;;;;13.38;6.45;;;;;;;15.21;100.00;102237.97;5072551;28;20037;-62
2023/10/01 01:51:59;;;;;;;12.82;7.05;;;;;;;15.21;100.00;102243.47;5056041;28;20354;-62
2023/10/01 01:54:49;;;;;;;11.45;6.60;;;;;;;15.21;100.00;102237.97;5061211;28;20040;-63
2023/10/01 01:57:37;;;;;;;11.45;6.75;;;;;;;15.21;100.00;102231.66;5062301;28;20455;-63
2023/10/01 02:00:26;;;;;;;13.05;7.22;;;;;;;15.19;100.00;102228.34;5057137;28;20045;-61
2023/10/01 02:03:18;;;;;;;10.60;6.72;;;;;;;15.16;100.00;102229.72;5046703;28;20075;-64
2023/10/01 02:06:07;;;;;;;13.65;6.93;;;;;;;15.15;100.00;102239.00;5058520;28;20051;-63
2023/10/01 02:08:58;;;;;;;14.13;7.05;;;;;;;15.12;100.00;102226.66;5056150;28;20132;-62
2023/10/01 02:11:49;;;;;;;14.25;7.32;;;;;;;15.12;100.00;102226.66;5056436;28;20133;-62
2023/10/01 02:14:40;;;;;;;11.68;6.78;;;;;;;15.08;100.00;102219.19;5041755;28;20041;-62
2023/10/01 02:17:29;;;;;;;13.80;6.95;;;;;;;15.05;100.00;102217.81;5060944;28;20049;-63
2023/10/01 02:20:23;;;;;;;14.18;7.03;;;;;;;14.96;100.00;102218.56;5061712;28;20055;-62
2023/10/01 02:23:17;;;;;;;15.15;7.00;;;;;;;14.89;100.00;102214.16;5076560;28;20044;-64
2023/10/01 02:26:06;;;;;;;14.77;7.50;;;;;;;14.88;100.00;102222.63;5056473;28;20067;-62
2023/10/01 02:28:54;;;;;;;12.27;7.22;;;;;;;14.85;100.00;102213.00;5069018;28;20131;-63
2023/10/01 02:31:54;;;;;;;12.25;6.88;;;;;;;14.82;100.00;102213.53;5076486;28;20049;-63
2023/10/01 02:34:43;;;;;;;12.35;6.88;;;;;;;14.77;100.00;102219.00;5079680;28;20052;-63
2023/10/01 02:37:35;;;;;;;12.68;6.90;;;;;;;14.76;100.00;102228.28;5078610;28;20071;-63
2023/10/01 02:40:23;;;;;;;12.30;7.00;;;;;;;14.75;100.00;102220.34;5076324;28;20048;-64
2023/10/01 02:43:14;;;;;;;12.20;6.60;;;;;;;14.75;100.00;102223.91;5075109;28;20044;-64
2023/10/01 02:46:07;;;;;;;11.90;6.63;;;;;;;14.80;100.00;102225.88;5076023;28;20128;-63
2023/10/01 02:48:59;;;;;;;11.48;6.30;;;;;;;14.78;100.00;102220.63;5047269;28;20134;-63
2023/10/01 02:51:49;;;;;;;11.45;7.03;;;;;;;14.78;100.00;102220.63;5060262;28;20531;-63
2023/10/01 02:54:37;;;;;;;11.02;6.63;;;;;;;14.80;100.00;102221.19;5057157;28;20094;-62
2023/10/01 02:57:26;;;;;;;11.73;6.30;;;;;;;14.80;100.00;102215.72;5060607;28;20049;-63
2023/10/01 03:03:14;;;;;;;17.73;6.57;;;;;;;14.75;100.00;102223.91;5080380;28;20079;-62
2023/10/01 03:06:08;;;;;;;11.80;6.45;;;;;;;14.75;100.00;102214.84;5064268;28;20087;-64
2023/10/01 03:11:46;;;;;;;12.38;6.70;;;;;;;14.75;100.00;102206.63;5057297;28;20504;-62
2023/10/01 03:14:34;;;;;;;11.63;6.72;;;;;;;14.74;100.00;102205.78;5061693;28;20500;-62
2023/10/01 03:17:22;;;;;;;13.80;6.50;;;;;;;14.74;100.00;102200.28;5060528;28;20400;-63
2023/10/01 03:26:10;;;;;;;12.88;6.18;;;;;;;14.69;100.00;102205.75;5040610;28;20045;-62
2023/10/01 03:29:15;;;;;;;12.77;6.45;;;;;;;14.70;100.00;102208.22;5055732;28;20117;-64
2023/10/01 03:32:26;;;;;;;12.80;6.30;;;;;;;14.69;100.00;102205.75;5043615;28;20179;-63
2023/10/01 03:35:12;;;;;;;11.10;6.10;;;;;;;14.67;100.00;102194.19;5040919;28;20045;-63
2023/10/01 03:38:09;;;;;;;11.38;5.72;;;;;;;14.66;100.00;102196.13;5055740;28;20521;-62
2023/10/01 03:41:02;;;;;;;11.25;5.75;;;;;;;14.64;100.00;102194.72;5053590;28;20489;-63
2023/10/01 03:43:56;;;;;;;11.85;5.82;;;;;;;14.61;100.00;102195.25;5080901;28;20044;-63
2023/10/01 03:46:46;;;;;;;11.57;5.93;;;;;;;14.60;100.00;102199.06;5079951;28;20058;-63
2023/10/01 03:49:44;;;;;;;11.90;5.90;;;;;;;14.60;100.00;102199.06;5064363;28;20044;-63
2023/10/01 03:52:39;;;;;;;12.23;6.60;;;;;;;14.58;100.00;102195.78;5040843;28;20049;-63
2023/10/01 03:55:29;;;;;;;12.68;6.50;;;;;;;14.55;100.00;102199.03;5066460;28;20040;-63
2023/10/01 03:58:25;;;;;;;10.52;6.38;;;;;;;14.44;100.00;102201.66;5059828;28;20040;-63
2023/10/01 04:01:26;;;;;;;11.02;5.82;;;;;;;14.44;100.00;102201.66;5056767;28;20421;-63
2023/10/01 04:04:15;;;;;;;10.93;5.72;;;;;;;14.47;100.00;102195.66;5039356;28;20191;-63
2023/10/01 04:07:10;;;;;;;11.15;6.25;;;;;;;14.51;100.00;102197.88;5044083;28;20056;-63
2023/10/01 04:09:58;;;;;;;13.45;5.90;;;;;;;14.53;100.00;102198.44;5069789;28;20075;-62
2023/10/01 04:12:49;;;;;;;11.40;5.80;;;;;;;14.51;100.00;102195.16;5078662;28;20037;-63
2023/10/01 04:15:49;;;;;;;11.98;5.97;;;;;;;14.51;100.00;102195.16;5089546;28;20052;-62
2023/10/01 04:18:42;;;;;;;11.55;6.03;;;;;;;14.52;100.00;102202.28;5078271;28;20056;-62
2023/10/01 04:21:34;;;;;;;12.25;6.10;;;;;;;14.51;100.00;102195.97;5085456;28;20093;-62
2023/10/01 04:24:22;;;;;;;10.35;5.72;;;;;;;14.52;100.00;102202.28;5093728;28;20188;-62
2023/10/01 04:27:23;;;;;;;10.68;5.68;;;;;;;14.55;100.00;102199.03;5078810;28;20043;-63
2023/10/01 04:30:12;;;;;;;10.38;5.72;;;;;;;14.55;100.00;102201.78;5059259;28;20040;-62
2023/10/01 04:33:16;;;;;;;12.48;6.13;;;;;;;14.55;100.00;102205.38;5078839;28;20047;-62
2023/10/01 04:36:10;;;;;;;13.05;6.45;;;;;;;14.54;100.00;102200.13;5080882;28;20051;-62
2023/10/01 04:39:00;;;;;;;11.48;5.57;;;;;;;14.55;100.00;102201.78;5060635;28;20178;-63
2023/10/01 04:41:58;;;;;;;12.00;6.35;;;;;;;14.55;100.00;102202.63;5061862;28;20044;-64
2023/10/01 04:44:47;;;;;;;15.02;6.05;;;;;;;14.50;100.00;102194.28;5046131;28;20182;-63
2023/10/01 04:47:41;;;;;;;12.18;6.13;;;;;;;14.48;100.00;102202.81;5073804;28;20099;-62
2023/10/01 04:50:29;;;;;;;11.30;6.00;;;;;;;14.45;100.00;102197.00;5057244;28;20450;-64
2023/10/01 04:53:20;;;;;;;11.55;6.43;;;;;;;14.42;100.00;102203.84;5056517;28;20036;-62
2023/10/01 04:56:10;;;;;;;12.10;6.20;;;;;;;14.41;100.00;102202.19;5072354;28;20385;-65
2023/10/01 04:58:59;;;;;;;12.45;6.47;;;;;;;14.42;100.00;102198.34;5045713;28;20048;-64
2023/10/01 05:01:47;;;;;;;13.05;6.93;;;;;;;14.40;100.00;102199.69;5054121;28;20115;-64
2023/10/01 05:04:35;;;;;;;13.35;5.88;;;;;;;14.37;100.00;102195.56;5079221;28;20040;-63
2023/10/01 05:07:24;;;;;;;11.63;6.15;;;;;;;14.35;100.00;102197.72;5086108;28;20543;-65
2023/10/01 05:10:13;;;;;;;13.70;6.50;;;;;;;14.33;100.00;102194.41;5056103;28;20159;-64
2023/10/01 05:13:02;;;;;;;14.02;6.30;;;;;;;14.36;100.00;102191.19;5039433;28;20453;-65
2023/10/01 05:15:56;;;;;;;13.50;6.88;;;;;;;14.36;100.00;102196.66;5055556;28;20045;-63
2023/10/01 05:19:03;;;;;;;14.43;6.80;;;;;;;14.35;100.00;102192.25;5059145;28;20079;-64
2023/10/01 05:21:56;;;;;;;13.85;7.20;;;;;;;14.34;100.00;102200.75;5069912;28;20089;-64
2023/10/01 05:24:48;;;;;;;14.57;6.80;;;;;;;14.31;100.00;102207.59;5055685;28;20060;-66
2023/10/01 05:27:36;;;;;;;12.07;6.45;;;;;;;14.27;100.00;102204.53;5071896;28;20044;-65
2023/10/01 05:30:39;;;;;;;14.55;6.47;;;;;;;14.29;100.00;102209.75;5058521;28;20407;-65
2023/10/01 05:33:27;;;;;;;12.57;5.82;;;;;;;14.30;100.00;102202.34;5056314;28;20052;-65
2023/10/01 05:36:16;;;;;;;13.68;6.07;;;;;;;14.29;100.00;102209.75;5073083;28;20059;-64
2023/10/01 05:39:11;;;;;;;14.65;7.07;;;;;;;14.28;100.00;102211.63;5071754;28;20098;-66
2023/10/01 05:42:00;;;;;;;11.93;6.60;;;;;;;14.27;100.00;102214.66;5056935;28;20456;-64
2023/10/01 05:44:50;;;;;;;11.43;6.15;;;;;;;14.27;100.00;102217.41;5072393;28;20095;-64
2023/10/01 05:47:54;;;;;;;17.05;6.35;;;;;;;14.27;100.00;102223.72;5064304;28;20051;-66
2023/10/01 05:50:43;;;;;;;15.35;7.03;;;;;;;14.28;100.00;102216.31;5071757;28;20052;-66
2023/10/01 05:53:32;;;;;;;15.40;7.35;;;;;;;14.27;100.00;102218.22;5071827;28;20099;-65
2023/10/01 05:56:20;;;;;;;13.50;6.05;;;;;;;14.28;100.00;102217.13;5071079;28;20048;-66
2023/10/01 05:59:10;;;;;;;10.90;5.90;;;;;;;14.29;100.00;102217.97;5072295;28;20093;-64
2023/10/01 06:01:58;;;;;;;13.77;6.60;;;;;;;14.30;100.00;102216.06;5073022;28;20059;-64
2023/10/01 06:04:47;;;;;;;15.05;6.65;;;;;;;14.28;100.00;102214.38;5084618;28;20044;-65
2023/10/01 06:07:41;;;;;;;12.27;6.40;;;;;;;14.28;100.00;102213.56;5078586;28;20051;-64
2023/10/01 06:10:35;;;;;;;15.02;7.38;;;;;;;14.28;100.00;102214.38;5079575;28;20075;-64
2023/10/01 06:13:24;;;;;;;13.33;6.50;;;;;;;14.27;100.00;102218.22;5071097;28;20049;-65
2023/10/01 06:16:13;;;;;;;14.40;7.00;;;;;;;14.29;100.00;102217.97;5060661;28;20068;-65
2023/10/01 06:19:02;;;;;;;12.77;5.95;;;;;;;14.30;100.00;102225.09;5058367;28;20065;-65
2023/10/01 06:21:50;;;;;;;12.55;6.30;;;;;;;14.30;100.00;102216.88;5056481;28;20040;-64
2023/10/01 06:24:46;;;;;;;13.00;6.20;;;;;;;14.31;100.00;102217.69;5070950;28;20404;-62
2023/10/01 06:27:34;;;;;;;;;;;;;;;14.32;100.00;102213.88;5071076;28;20049;-65
2023/10/01 06:30:24;;;;;;;11.55;5.82;;;;;;;14.32;100.00;102228.41;5055297;28;19998;-65
2023/10/01 06:33:29;;;;;;;12.77;5.95;;;;;;;14.33;100.00;102221.00;5040591;28;20048;-64
2023/10/01 06:36:21;;;;;;;;;;;;;;;14.36;100.00;102220.50;5070315;28;20458;-63
2023/10/01 06:39:19;;;;;;;10.18;5.10;;;;;;;14.37;100.00;102222.16;5075569;28;20326;-65
2023/10/01 06:42:19;;;;;;;13.57;6.88;;;;;;;14.36;100.00;102213.13;5062693;28;20043;-64
2023/10/01 06:45:10;;;;;;;16.13;7.53;;;;;;;14.35;100.00;102211.44;5047449;28;20045;-64
2023/10/01 06:48:08;;;;;;;14.77;6.63;;;;;;;14.36;100.00;102221.34;5058628;28;20121;-64
2023/10/01 06:50:59;;;;;;;13.65;6.65;;;;;;;14.40;100.00;102216.16;5074833;28;20178;-62
2023/10/01 06:53:48;;;;;;;13.90;6.93;;;;;;;14.41;100.00;102223.31;5072097;28;20052;-64
2023/10/01 06:56:37;;;;;;;11.98;6.45;;;;;;;14.43;100.00;102221.97;5072430;28;20059;-64
2023/10/01 06:59:27;;;;;;;12.00;6.10;;;;;;;14.45;100.00;102211.53;5072627;28;20033;-65
2023/10/01 07:02:16;;;;;;;18.33;7.00;;;;;;;14.46;100.00;102210.47;5075341;28;20041;-64
2023/10/01 07:05:04;;;;;;;16.77;7.32;;;;;;;14.47;100.00;102209.34;5070411;28;20044;-63
2023/10/01 07:08:02;;;;;;;14.27;6.68;;;;;;;14.47;100.00;102205.78;5078522;28;20044;-64
2023/10/01 07:10:50;;;;;;;12.23;5.75;;;;;;;14.46;100.00;102210.47;5078797;28;20041;-63
2023/10/01 07:13:40;;;;;;;16.77;6.50;;;;;;;14.50;100.00;102218.97;5063773;28;20096;-63
2023/10/01 07:16:40;;;;;;;14.13;6.70;;;;;;;14.51;100.00;102211.59;5064250;28;20050;-63
2023/10/01 07:19:31;;;;;;;12.55;6.38;;;;;;;14.54;100.00;102216.59;5050635;28;20119;-63
2023/10/01 07:22:24;;;;;;;12.88;6.50;;;;;;;14.55;100.00;102231.94;5071788;28;20492;-63
2023/10/01 07:25:28;;;;;;;12.88;6.22;;;;;;;14.57;100.00;102232.53;5064414;28;20051;-63
2023/10/01 07:28:19;;;;;;;12.30;6.25;;;;;;;14.59;100.00;102231.16;5060999;28;20052;-65
2023/10/01 07:31:08;;;;;;;15.15;6.72;;;;;;;14.61;100.00;102223.50;5046520;28;20044;-64
2023/10/01 07:34:01;;;;;;;16.70;7.47;;;;;;;14.64;100.00;102228.47;5062343;28;20549;-63
2023/10/01 07:36:50;;;;;;;16.08;7.28;;;;;;;14.68;100.00;102223.31;5059431;28;20055;-64
2023/10/01 07:39:40;;;;;;;14.60;7.32;;;;;;;14.69;100.00;102225.75;5058842;28;20071;-63
2023/10/01 07:42:28;;;;;;;14.38;6.88;;;;;;;14.74;100.00;102233.22;5072306;28;20032;-63
2023/10/01 07:45:17;;;;;;;15.95;6.65;;;;;;;14.77;100.00;102227.22;5059843;28;20044;-64
2023/10/01 07:48:05;;;;;;;14.98;7.25;;;;;;;14.83;100.00;102230.81;5073721;28;20416;-62
2023/10/01 07:50:55;;;;;;;16.45;7.75;;;;;;;14.87;100.00;102238.28;5074319;28;20045;-63
2023/10/01 07:53:43;;;;;;;13.88;6.05;;;;;;;14.95;100.00;102236.13;5074586;28;20245;-64
2023/10/01 07:56:32;;;;;;;19.08;8.75;;;;;;;14.95;100.00;102239.69;5054481;28;20128;-61
2023/10/01 07:59:33;;;;;;;26.90;9.80;;;;;;;14.96;100.00;102232.28;5046586;28;20040;-62
2023/10/01 08:02:25;;;;;;;21.40;8.95;;;;;;;14.99;100.00;102229.03;5072262;28;20075;-64
2023/10/01 08:05:19;;;;;;;15.93;8.30;;;;;;;14.99;100.00;102229.03;5071148;28;20045;-63
2023/10/01 08:08:10;;;;;;;19.55;10.10;;;;;;;15.00;100.00;102237.00;5071715;28;20040;-64
2023/10/01 08:10:58;;;;;;;17.63;9.63;;;;;;;15.02;100.00;102234.81;5058559;28;20045;-63
2023/10/01 08:13:46;;;;;;;17.08;7.30;;;;;;;15.09;100.00;102231.84;5066270;28;20040;-63
2023/10/01 08:16:47;;;;;;;17.27;7.82;;;;;;;15.16;100.00;102237.94;5072459;28;20052;-64
2023/10/01 08:19:45;;;;;;;17.88;8.18;;;;;;;15.20;100.00;102244.56;5074262;28;20411;-65
2023/10/01 08:23:12;;;;;;;16.90;8.40;;;;;;;15.27;100.00;102239.66;5073616;28;20098;-64
2023/10/01 08:25:55;;;;;;;23.98;9.20;;;;;;;15.31;100.00;102249.00;5068013;28;20090;-63
2023/10/01 08:28:44;;;;;;;18.35;8.63;;;;;;;15.36;100.00;102247.41;5074222;28;20052;-63
2023/10/01 08:35:01;;;;;;;18.65;8.50;;;;;;;15.49;100.00;102250.50;5071322;28;20049;-64
2023/10/01 08:37:49;;;;;;;19.65;9.50;;;;;;;15.51;100.00;102250.22;5064760;28;20040;-64
2023/10/01 08:40:41;;;;;;;15.90;7.93;;;;;;;15.54;100.00;102246.97;5072984;28;20052;-65
2023/10/01 08:43:36;;;;;;;17.25;8.35;;;;;;;15.62;100.00;102245.63;5038954;28;20428;-65
2023/10/01 08:46:31;;;;;;;19.15;8.57;;;;;;;15.68;100.00;102245.41;5042793;28;20047;-64
2023/10/01 08:49:23;;;;;;;;;;;;;;;15.79;100.00;102235.28;5054731;28;20040;-64
2023/10/01 08:52:19;;;;;;;19.27;8.25;;;;;;;15.85;100.00;102241.63;5072735;28;19920;-63
2023/10/01 08:55:08;;;;;;;20.73;8.23;;;;;;;15.82;100.00;102245.72;5084414;28;20044;-63
2023/10/01 08:58:10;;;;;;;18.33;7.70;;;;;;;15.89;100.00;102237.25;5036817;28;20530;-63
2023/10/01 09:01:14;;;;;;;17.90;8.13;;;;;;;15.88;100.00;102232.88;5059079;28;20052;-64
2023/10/01 09:04:29;;;;;;;16.67;8.45;;;;;;;15.89;100.00;102226.25;5069798;28;20037;-65
2023/10/01 09:07:19;;;;;;;18.15;8.15;;;;;;;16.01;100.00;102229.59;5064545;28;20040;-65
2023/10/01 09:10:08;;;;;;;17.33;8.77;;;;;;;16.06;100.00;102231.53;5050713;28;20079;-64
2023/10/01 09:13:03;;;;;;;18.83;9.35;;;;;;;16.09;100.00;102237.34;5045115;28;20084;-64
2023/10/01 09:15:55;;;;;;;18.65;8.32;;;;;;;16.12;100.00;102235.97;5035190;28;20040;-64
2023/10/01 09:19:03;;;;;;;18.40;8.82;;;;;;;16.19;100.00;102229.09;5092784;28;20063;-64
2023/10/01 09:21:56;;;;;;;19.73;8.45;;;;;;;16.30;100.00;102223.63;5092068;28;20048;-64
2023/10/01 09:24:55;;;;;;;18.52;8.00;;;;;;;16.34;100.00;102217.28;5077039;28;20059;-64
2023/10/01 09:27:57;;;;;;;18.35;8.98;;;;;;;16.34;100.00;102209.03;5068346;28;20055;-64
2023/10/01 09:31:21;;;;;;;18.15;7.68;;;;;;;16.40;100.00;102216.22;5044130;28;20045;-62
2023/10/01 09:34:31;;;;;;;18.70;8.80;;;;;;;16.39;100.00;102214.56;5061800;28;20069;-64
2023/10/01 09:37:47;;;;;;;18.75;8.93;;;;;;;16.42;100.00;102212.34;5068496;28;20033;-64
2023/10/01 09:40:38;;;;;;;20.52;9.32;;;;;;;16.44;100.00;102216.47;5051524;28;20498;-63
2023/10/01 09:43:30;;;;;;;17.00;7.78;;;;;;;16.49;100.00;102216.50;5071100;28;20048;-63
2023/10/01 09:46:21;;;;;;;20.92;9.10;;;;;;;16.52;100.00;102213.19;5066329;28;20064;-64
2023/10/01 09:49:09;;;;;;;19.48;9.15;;;;;;;16.57;100.00;102215.97;5072901;28;20205;-64
2023/10/01 09:51:58;;;;;;;17.80;8.55;;;;;;;16.61;100.00;102216.22;5045327;28;20072;-64
2023/10/01 09:54:48;;;;;;;19.77;8.68;;;;;;;16.65;100.00;102216.50;5037826;28;20052;-64
2023/10/01 09:57:37;;;;;;;17.00;8.63;;;;;;;16.69;100.00;102217.59;5077851;28;20052;-63
2023/10/01 10:00:40;;;;;;;19.55;8.45;;;;;;;16.70;100.00;102222.84;5042405;28;20044;-64
2023/10/01 10:03:37;;;;;;;16.52;8.25;;;;;;;16.73;100.00;102230.53;5046849;28;20044;-64
2023/10/01 10:06:25;;;;;;;17.73;8.45;;;;;;;16.76;100.00;102223.66;5063460;28;20050;-64
2023/10/01 10:09:26;;;;;;;20.42;8.48;;;;;;;16.83;100.00;102219.53;5059449;28;20052;-65
2023/10/01 10:12:14;;;;;;;21.05;9.15;;;;;;;16.87;100.00;102213.50;5059451;28;20080;-63
2023/10/01 10:15:02;;;;;;;18.40;8.23;;;;;;;16.90;100.00;102215.69;5041918;28;20045;-64
2023/10/01 10:17:58;;;;;;;20.92;9.63;;;;;;;16.90;100.00;102208.25;5048631;28;20175;-64
2023/10/01 10:21:12;;;;;;;19.40;9.18;;;;;;;16.93;100.00;102210.47;5048067;28;20040;-66
2023/10/01 10:24:02;;;;;;;19.30;9.38;;;;;;;16.99;100.00;102212.09;5058020;28;20533;-65
2023/10/01 10:30:05;;;;;;;18.58;8.80;;;;;;;17.12;100.00;102209.88;5067202;28;20067;-64
2023/10/01 10:33:15;;;;;;;16.30;8.30;;;;;;;17.17;100.00;102196.09;5036853;28;20068;-64
2023/10/01 10:36:49;;;;;;;19.35;9.18;;;;;;;17.24;100.00;102199.38;5051168;28;20045;-65
2023/10/01 10:39:48;;;;;;;16.85;8.60;;;;;;;17.33;100.00;102192.22;5056149;28;20053;-64
2023/10/01 10:42:36;;;;;;;17.98;8.60;;;;;;;17.38;100.00;102203.19;5037217;28;20040;-65
2023/10/01 10:45:35;;;;;;;21.48;10.50;;;;;;;17.44;100.00;102193.84;5028888;28;20099;-64
2023/10/01 10:48:59;;;;;;;19.83;10.02;;;;;;;17.52;100.00;102191.59;5021245;28;20045;-63
2023/10/01 10:51:48;;;;;;;;;;;;;;;17.59;100.00;102203.97;5054153;28;20052;-62
2023/10/01 10:54:37;;;;;;;20.23;10.30;;;;;;;17.70;100.00;102204.72;5028261;28;20273;-64
2023/10/01 10:57:25;;;;;;;23.60;10.20;;;;;;;17.76;100.00;102192.59;5019737;28;20429;-63
2023/10/01 11:00:23;;;;;;;20.40;9.68;;;;;;;17.78;100.00;102187.63;4356690;28;9999919;-63
2023/10/01 11:03:12;;;;;;;23.00;10.25;;;;;;;17.82;100.00;102179.63;5025367;28;20080;-66
2023/10/01 11:06:44;;;;;;;21.00;9.52;;;;;;;17.84;100.00;102178.22;5027690;28;20045;-63
2023/10/01 11:09:33;;;;;;;20.65;9.60;;;;;;;17.90;100.00;102175.47;5035740;28;20401;-65
2023/10/01 11:12:21;;;;;;;15.52;7.72;;;;;;;17.92;100.00;102170.47;5026648;28;20041;-65
2023/10/01 11:15:25;;;;;;;14.55;6.10;;;;;;;17.93;100.00;102174.91;5035855;28;20052;-64
2023/10/01 11:18:13;;;;;;;24.58;8.73;;;;;;;17.97;100.00;102176.81;5027130;28;20057;-65
2023/10/01 11:21:02;;;;;;;15.85;7.65;;;;;;;17.99;100.00;102165.47;5048448;28;20511;-65
2023/10/01 11:23:53;;;;;;;17.35;7.07;;;;;;;18.01;100.00;102166.81;5057022;28;20040;-65
2023/10/01 11:27:20;;;;;;;15.60;7.25;;;;;;;18.06;100.00;102155.78;5035163;28;20057;-65
2023/10/01 11:30:15;;;;;;;16.85;7.93;;;;;;;18.12;100.00;102155.75;5052392;28;20345;-64
2023/10/01 11:36:09;;;;;;;18.70;8.30;;;;;;;18.25;100.00;102158.66;5054849;28;20446;-64
2023/10/01 11:38:57;;;;;;;20.85;8.48;;;;;;;18.32;100.00;102150.06;5043221;28;20495;-64
2023/10/01 11:41:46;;;;;;;19.13;8.15;;;;;;;18.36;100.00;102148.38;5091010;28;20047;-63
2023/10/01 11:44:43;;;;;;;17.33;7.97;;;;;;;18.42;100.00;102152.72;5075624;28;20134;-63
2023/10/01 11:48:04;;;;;;;17.00;7.82;;;;;;;18.50;100.00;102143.84;5070839;28;20055;-64
2023/10/01 11:50:53;;;;;;;19.58;8.50;;;;;;;18.58;100.00;102150.69;5050099;28;20629;-64
2023/10/01 11:53:56;;;;;;;15.25;7.80;;;;;;;18.61;100.00;102147.34;5051657;28;20072;-63
2023/10/01 11:57:04;;;;;;;16.40;7.03;;;;;;;18.66;100.00;102139.00;5062464;28;20043;-64
2023/10/01 11:59:55;;;;;;;17.50;8.30;;;;;;;18.71;100.00;102140.88;5070479;28;20051;-63
2023/10/01 12:02:43;;;;;;;19.73;7.97;;;;;;;18.76;100.00;102134.50;5055931;28;20052;-64
2023/10/01 12:05:38;;;;;;;19.63;9.52;;;;;;;18.83;100.00;102135.00;5068651;28;20145;-64
2023/10/01 12:08:35;;;;;;;19.27;9.13;;;;;;;18.88;100.00;102126.66;5061546;28;20049;-63
2023/10/01 12:11:26;;;;;;;16.88;8.27;;;;;;;18.92;100.00;102124.97;5062687;28;20131;-64
2023/10/01 12:14:19;;;;;;;16.63;6.85;;;;;;;18.94;100.00;102122.75;5053960;28;20123;-64
2023/10/01 12:17:07;;;;;;;13.52;6.18;;;;;;;18.96;100.00;102120.53;5046608;28;20107;-63
2023/10/01 12:20:03;;;;;;;17.00;7.10;;;;;;;19.02;100.00;102124.84;5062092;28;20492;-64
2023/10/01 12:23:10;;;;;;;14.05;7.25;;;;;;;19.06;100.00;102125.94;5070026;28;20051;-64
2023/10/01 12:26:31;;;;;;;17.13;8.27;;;;;;;19.11;100.00;102117.56;5065540;28;20584;-65
2023/10/01 12:29:13;;;;;;;20.45;10.18;;;;;;;19.24;100.00;102123.50;5045722;28;20102;-62
2023/10/01 12:32:04;;;;;;;22.23;10.32;;;;;;;19.33;100.00;102118.97;5053792;28;20048;-64
2023/10/01 12:34:52;;;;;;;19.77;9.98;;;;;;;19.35;100.00;102109.25;5061991;28;20501;-64
2023/10/01 12:37:40;;;;;;;19.95;9.70;;;;;;;19.39;100.00;102106.75;5058157;28;20052;-63
2023/10/01 12:40:28;;;;;;;20.55;8.27;;;;;;;19.37;100.00;102103.44;5071959;28;20404;-64
2023/10/01 12:46:23;;;;;;;16.38;8.13;;;;;;;19.38;100.00;102102.31;5073996;28;20047;-63
2023/10/01 12:49:14;;;;;;;16.23;7.75;;;;;;;19.41;100.00;102098.97;5071003;28;20052;-63
2023/10/01 12:52:14;;;;;;;19.48;9.30;;;;;;;19.46;100.00;102093.38;5072227;28;20051;-63
2023/10/01 12:55:04;;;;;;;16.35;7.30;;;;;;;19.48;100.00;102088.38;5075125;28;20037;-63
2023/10/01 12:57:53;;;;;;;18.48;9.68;;;;;;;19.59;99.88;102086.28;5092544;28;20047;-63
2023/10/01 13:00:44;;;;;;;15.68;7.75;;;;;;;19.63;99.23;102084.56;5076036;28;20408;-63
2023/10/01 13:03:42;;;;;;;19.75;10.27;;;;;;;19.68;96.73;102086.47;5094146;28;20185;-63
2023/10/01 13:06:31;;;;;;;15.25;7.65;;;;;;;19.67;98.33;102079.25;5091810;28;20048;-62
2023/10/01 13:09:53;;;;;;;20.65;9.60;;;;;;;19.68;97.86;102076.22;5079484;28;20058;-63
2023/10/01 13:12:56;;;;;;;21.60;10.60;;;;;;;19.72;97.20;102070.91;5093876;28;20075;-63
2023/10/01 13:15:51;;;;;;;19.85;9.80;;;;;;;19.77;95.03;102070.84;5044273;28;20494;-62
2023/10/01 13:18:41;;;;;;;19.17;9.43;;;;;;;19.80;94.80;102070.25;5052836;28;20150;-63
2023/10/01 13:21:41;;;;;;;19.95;10.20;;;;;;;19.84;93.61;102064.94;5053459;28;20097;-64
2023/10/01 13:24:32;;;;;;;17.67;8.88;;;;;;;19.86;95.52;102068.22;5053318;28;20067;-65
2023/10/01 13:27:21;;;;;;;19.75;9.63;;;;;;;19.86;96.66;102059.91;5068193;28;20049;-64
2023/10/01 13:30:20;;;;;;;21.92;10.73;;;;;;;19.92;96.61;102064.25;5052071;28;20106;-63
2023/10/01 13:33:13;;;;;;;21.05;10.15;;;;;;;19.96;96.61;102060.59;5052595;28;20076;-64
2023/10/01 13:36:12;;;;;;;16.17;8.60;;;;;;;19.99;96.15;102057.22;5107685;28;20089;-62
2023/10/01 13:39:15;;;;;;;15.35;7.20;;;;;;;19.99;96.22;102057.22;5078576;28;20536;-63